sensor_id;sensor_type;location;lat;lon;timestamp;P1;durP1;ratioP1;P2;durP2;ratioP2
54983;SDS011;40884;53.562;9.940;2022-12-05T00:00:57;29.63;;;20.07;;
54983;SDS011;40884;53.562;9.940;2022-12-05T00:01:57;29.93;;;20.37;;
54983;SDS011;40884;53.562;9.940;2022-12-05T00:02:57;31.80;;;20.17;;
54983;SDS011;40884;53.562;9.940;2022-12-05T00:03:59;30.63;;;22.00;;
54983;SDS011;40884;53.562;9.940;2022-12-05T00:04:59;30.27;;;20.25;;
54983;SDS011;40884;53.562;9.940;2022-12-05T00:05:59;29.40;;;20.03;;
54983;SDS011;40884;53.562;9.940;2022-12-05T00:06:59;32.03;;;20.67;;
54983;SDS011;40884;53.562;9.940;2022-12-05T00:07:59;31.30;;;21.10;;
54983;SDS011;40884;53.562;9.940;2022-12-05T00:09:00;33.70;;;21.47;;
54983;SDS011;40884;53.562;9.940;2022-12-05T00:10:00;32.00;;;21.20;;
54983;SDS011;40884;53.562;9.940;2022-12-05T00:11:00;31.63;;;20.23;;
54983;SDS011;40884;53.562;9.940;2022-12-05T00:12:00;31.83;;;21.10;;
54983;SDS011;40884;53.562;9.940;2022-12-05T00:13:00;31.63;;;20.20;;
54983;SDS011;40884;53.562;9.940;2022-12-05T00:14:01;29.63;;;19.83;;
54983;SDS011;40884;53.562;9.940;2022-12-05T00:15:02;28.90;;;19.73;;
54983;SDS011;40884;53.562;9.940;2022-12-05T00:16:05;29.13;;;19.63;;
54983;SDS011;40884;53.562;9.940;2022-12-05T00:17:05;29.20;;;18.83;;
54983;SDS011;40884;53.562;9.940;2022-12-05T00:18:05;30.20;;;19.57;;
54983;SDS011;40884;53.562;9.940;2022-12-05T00:19:06;29.17;;;20.73;;
54983;SDS011;40884;53.562;9.940;2022-12-05T00:20:07;28.33;;;19.57;;
54983;SDS011;40884;53.562;9.940;2022-12-05T00:21:11;27.87;;;19.17;;
54983;SDS011;40884;53.562;9.940;2022-12-05T00:22:11;28.77;;;18.77;;
54983;SDS011;40884;53.562;9.940;2022-12-05T00:23:11;30.63;;;19.50;;
54983;SDS011;40884;53.562;9.940;2022-12-05T00:24:12;26.97;;;17.90;;
54983;SDS011;40884;53.562;9.940;2022-12-05T00:25:13;29.38;;;20.30;;
54983;SDS011;40884;53.562;9.940;2022-12-05T00:26:13;26.67;;;19.00;;
54983;SDS011;40884;53.562;9.940;2022-12-05T00:27:13;29.33;;;19.60;;
54983;SDS011;40884;53.562;9.940;2022-12-05T00:28:14;27.17;;;18.50;;
54983;SDS011;40884;53.562;9.940;2022-12-05T00:29:14;26.97;;;19.03;;
54983;SDS011;40884;53.562;9.940;2022-12-05T00:30:14;29.27;;;18.70;;
54983;SDS011;40884;53.562;9.940;2022-12-05T00:31:16;26.33;;;17.63;;
54983;SDS011;40884;53.562;9.940;2022-12-05T00:32:16;26.50;;;18.75;;
54983;SDS011;40884;53.562;9.940;2022-12-05T00:33:16;26.17;;;17.97;;
54983;SDS011;40884;53.562;9.940;2022-12-05T00:34:16;25.70;;;18.30;;
54983;SDS011;40884;53.562;9.940;2022-12-05T00:35:17;26.47;;;17.50;;
54983;SDS011;40884;53.562;9.940;2022-12-05T00:36:21;26.17;;;17.83;;
54983;SDS011;40884;53.562;9.940;2022-12-05T00:37:21;26.08;;;18.15;;
54983;SDS011;40884;53.562;9.940;2022-12-05T00:38:21;28.23;;;18.67;;
54983;SDS011;40884;53.562;9.940;2022-12-05T00:39:21;24.50;;;17.73;;
54983;SDS011;40884;53.562;9.940;2022-12-05T00:40:21;27.30;;;18.23;;
54983;SDS011;40884;53.562;9.940;2022-12-05T00:41:22;25.90;;;17.83;;
54983;SDS011;40884;53.562;9.940;2022-12-05T00:42:23;25.42;;;18.42;;
54983;SDS011;40884;53.562;9.940;2022-12-05T00:43:23;24.10;;;18.20;;
54983;SDS011;40884;53.562;9.940;2022-12-05T00:44:23;22.90;;;17.00;;
54983;SDS011;40884;53.562;9.940;2022-12-05T00:45:23;27.43;;;18.37;;
54983;SDS011;40884;53.562;9.940;2022-12-05T00:46:24;25.10;;;18.53;;
54983;SDS011;40884;53.562;9.940;2022-12-05T00:47:24;24.30;;;17.63;;
54983;SDS011;40884;53.562;9.940;2022-12-05T00:48:24;25.80;;;18.27;;
54983;SDS011;40884;53.562;9.940;2022-12-05T00:49:24;25.37;;;16.63;;
54983;SDS011;40884;53.562;9.940;2022-12-05T00:50:24;25.00;;;17.90;;
54983;SDS011;40884;53.562;9.940;2022-12-05T00:51:26;26.67;;;18.57;;
54983;SDS011;40884;53.562;9.940;2022-12-05T00:52:26;24.83;;;17.55;;
54983;SDS011;40884;53.562;9.940;2022-12-05T00:53:26;23.50;;;16.83;;
54983;SDS011;40884;53.562;9.940;2022-12-05T00:54:26;24.37;;;18.50;;
54983;SDS011;40884;53.562;9.940;2022-12-05T00:55:26;24.93;;;18.60;;
54983;SDS011;40884;53.562;9.940;2022-12-05T00:56:27;24.73;;;17.20;;
54983;SDS011;40884;53.562;9.940;2022-12-05T00:57:28;24.83;;;17.73;;
54983;SDS011;40884;53.562;9.940;2022-12-05T00:58:28;23.77;;;17.10;;
54983;SDS011;40884;53.562;9.940;2022-12-05T00:59:28;24.77;;;17.97;;
54983;SDS011;40884;53.562;9.940;2022-12-05T01:00:28;24.73;;;18.07;;
54983;SDS011;40884;53.562;9.940;2022-12-05T01:01:30;28.30;;;19.00;;
54983;SDS011;40884;53.562;9.940;2022-12-05T01:02:31;25.35;;;17.83;;
54983;SDS011;40884;53.562;9.940;2022-12-05T01:03:31;24.43;;;17.73;;
54983;SDS011;40884;53.562;9.940;2022-12-05T01:04:31;26.20;;;17.30;;
54983;SDS011;40884;53.562;9.940;2022-12-05T01:05:32;24.20;;;17.83;;
54983;SDS011;40884;53.562;9.940;2022-12-05T01:06:32;23.23;;;17.23;;
54983;SDS011;40884;53.562;9.940;2022-12-05T01:07:33;24.80;;;17.37;;
54983;SDS011;40884;53.562;9.940;2022-12-05T01:08:33;21.90;;;16.77;;
54983;SDS011;40884;53.562;9.940;2022-12-05T01:09:34;25.17;;;17.33;;
54983;SDS011;40884;53.562;9.940;2022-12-05T01:10:34;24.97;;;17.43;;
54983;SDS011;40884;53.562;9.940;2022-12-05T01:11:34;24.43;;;16.53;;
54983;SDS011;40884;53.562;9.940;2022-12-05T01:12:34;23.27;;;17.57;;
54983;SDS011;40884;53.562;9.940;2022-12-05T01:13:34;25.93;;;17.87;;
54983;SDS011;40884;53.562;9.940;2022-12-05T01:14:34;24.37;;;17.30;;
54983;SDS011;40884;53.562;9.940;2022-12-05T01:15:36;25.13;;;18.60;;
54983;SDS011;40884;53.562;9.940;2022-12-05T01:16:37;25.65;;;18.10;;
54983;SDS011;40884;53.562;9.940;2022-12-05T01:17:37;25.00;;;18.13;;
54983;SDS011;40884;53.562;9.940;2022-12-05T01:18:37;24.80;;;17.80;;
54983;SDS011;40884;53.562;9.940;2022-12-05T01:19:37;24.30;;;16.73;;
54983;SDS011;40884;53.562;9.940;2022-12-05T01:20:41;24.87;;;18.00;;
54983;SDS011;40884;53.562;9.940;2022-12-05T01:21:41;25.67;;;18.70;;
54983;SDS011;40884;53.562;9.940;2022-12-05T01:22:41;25.60;;;17.53;;
54983;SDS011;40884;53.562;9.940;2022-12-05T01:23:42;25.73;;;17.53;;
54983;SDS011;40884;53.562;9.940;2022-12-05T01:24:42;22.43;;;16.77;;
54983;SDS011;40884;53.562;9.940;2022-12-05T01:25:43;24.30;;;16.83;;
54983;SDS011;40884;53.562;9.940;2022-12-05T01:26:44;23.33;;;17.20;;
54983;SDS011;40884;53.562;9.940;2022-12-05T01:27:44;23.73;;;16.33;;
54983;SDS011;40884;53.562;9.940;2022-12-05T01:28:44;23.60;;;17.53;;
54983;SDS011;40884;53.562;9.940;2022-12-05T01:29:44;21.87;;;16.93;;
54983;SDS011;40884;53.562;9.940;2022-12-05T01:30:45;22.27;;;16.23;;
54983;SDS011;40884;53.562;9.940;2022-12-05T01:31:46;27.02;;;18.38;;
54983;SDS011;40884;53.562;9.940;2022-12-05T01:32:46;22.97;;;16.47;;
54983;SDS011;40884;53.562;9.940;2022-12-05T01:33:46;25.17;;;17.60;;
54983;SDS011;40884;53.562;9.940;2022-12-05T01:34:46;23.90;;;17.47;;
54983;SDS011;40884;53.562;9.940;2022-12-05T01:35:46;23.70;;;17.07;;
54983;SDS011;40884;53.562;9.940;2022-12-05T01:36:46;22.03;;;17.20;;
54983;SDS011;40884;53.562;9.940;2022-12-05T01:37:47;22.87;;;17.27;;
54983;SDS011;40884;53.562;9.940;2022-12-05T01:38:47;22.23;;;16.80;;
54983;SDS011;40884;53.562;9.940;2022-12-05T01:39:47;23.53;;;15.63;;
54983;SDS011;40884;53.562;9.940;2022-12-05T01:40:47;23.27;;;17.07;;
54983;SDS011;40884;53.562;9.940;2022-12-05T01:41:48;20.77;;;15.97;;
54983;SDS011;40884;53.562;9.940;2022-12-05T01:42:48;21.17;;;16.17;;
54983;SDS011;40884;53.562;9.940;2022-12-05T01:44:59;23.52;;;16.77;;
54983;SDS011;40884;53.562;9.940;2022-12-05T01:46:00;21.95;;;15.80;;
54983;SDS011;40884;53.562;9.940;2022-12-05T01:47:00;21.10;;;16.67;;
54983;SDS011;40884;53.562;9.940;2022-12-05T01:48:01;22.23;;;15.73;;
54983;SDS011;40884;53.562;9.940;2022-12-05T01:50:08;22.55;;;16.15;;
54983;SDS011;40884;53.562;9.940;2022-12-05T01:51:09;21.70;;;15.80;;
54983;SDS011;40884;53.562;9.940;2022-12-05T01:52:19;20.30;;;16.10;;
54983;SDS011;40884;53.562;9.940;2022-12-05T01:53:20;22.52;;;16.40;;
54983;SDS011;40884;53.562;9.940;2022-12-05T01:54:21;23.07;;;16.73;;
54983;SDS011;40884;53.562;9.940;2022-12-05T01:55:21;22.63;;;16.42;;
54983;SDS011;40884;53.562;9.940;2022-12-05T01:56:21;22.20;;;16.67;;
54983;SDS011;40884;53.562;9.940;2022-12-05T01:57:22;20.13;;;15.53;;
54983;SDS011;40884;53.562;9.940;2022-12-05T01:58:23;20.80;;;15.50;;
54983;SDS011;40884;53.562;9.940;2022-12-05T01:59:27;20.98;;;16.10;;
54983;SDS011;40884;53.562;9.940;2022-12-05T02:00:29;21.90;;;15.65;;
54983;SDS011;40884;53.562;9.940;2022-12-05T02:01:29;20.57;;;15.73;;
54983;SDS011;40884;53.562;9.940;2022-12-05T02:02:29;19.67;;;15.73;;
54983;SDS011;40884;53.562;9.940;2022-12-05T02:03:30;21.27;;;15.80;;
54983;SDS011;40884;53.562;9.940;2022-12-05T02:04:31;20.83;;;16.10;;
54983;SDS011;40884;53.562;9.940;2022-12-05T02:05:35;22.13;;;16.30;;
54983;SDS011;40884;53.562;9.940;2022-12-05T02:06:35;22.23;;;16.55;;
54983;SDS011;40884;53.562;9.940;2022-12-05T02:07:36;21.33;;;15.63;;
54983;SDS011;40884;53.562;9.940;2022-12-05T02:08:37;20.40;;;16.05;;
54983;SDS011;40884;53.562;9.940;2022-12-05T02:09:37;23.30;;;17.23;;
54983;SDS011;40884;53.562;9.940;2022-12-05T02:10:42;21.17;;;16.63;;
54983;SDS011;40884;53.562;9.940;2022-12-05T02:11:46;20.55;;;16.67;;
54983;SDS011;40884;53.562;9.940;2022-12-05T02:12:48;21.55;;;15.27;;
54983;SDS011;40884;53.562;9.940;2022-12-05T02:16:15;21.52;;;15.75;;
54983;SDS011;40884;53.562;9.940;2022-12-05T02:21:47;21.93;;;16.30;;
54983;SDS011;40884;53.562;9.940;2022-12-05T02:23:01;22.27;;;15.63;;
54983;SDS011;40884;53.562;9.940;2022-12-05T02:24:26;23.52;;;16.58;;
54983;SDS011;40884;53.562;9.940;2022-12-05T02:26:56;21.35;;;15.95;;
54983;SDS011;40884;53.562;9.940;2022-12-05T02:28:18;22.35;;;16.63;;
54983;SDS011;40884;53.562;9.940;2022-12-05T02:29:44;21.58;;;16.48;;
54983;SDS011;40884;53.562;9.940;2022-12-05T02:30:53;21.83;;;15.70;;
54983;SDS011;40884;53.562;9.940;2022-12-05T02:32:12;24.13;;;16.98;;
54983;SDS011;40884;53.562;9.940;2022-12-05T02:33:23;22.17;;;16.35;;
54983;SDS011;40884;53.562;9.940;2022-12-05T02:34:28;23.63;;;16.50;;
54983;SDS011;40884;53.562;9.940;2022-12-05T02:35:33;23.10;;;16.83;;
54983;SDS011;40884;53.562;9.940;2022-12-05T02:36:41;22.45;;;17.35;;
54983;SDS011;40884;53.562;9.940;2022-12-05T02:38:58;21.85;;;17.40;;
54983;SDS011;40884;53.562;9.940;2022-12-05T02:40:04;23.40;;;18.05;;
54983;SDS011;40884;53.562;9.940;2022-12-05T02:42:17;21.77;;;16.87;;
54983;SDS011;40884;53.562;9.940;2022-12-05T02:43:35;24.75;;;18.00;;
54983;SDS011;40884;53.562;9.940;2022-12-05T02:44:37;23.27;;;17.60;;
54983;SDS011;40884;53.562;9.940;2022-12-05T02:45:39;23.15;;;16.83;;
54983;SDS011;40884;53.562;9.940;2022-12-05T02:46:40;22.75;;;17.38;;
54983;SDS011;40884;53.562;9.940;2022-12-05T02:47:45;25.55;;;18.70;;
54983;SDS011;40884;53.562;9.940;2022-12-05T02:48:46;22.42;;;17.52;;
54983;SDS011;40884;53.562;9.940;2022-12-05T02:49:47;23.70;;;18.40;;
54983;SDS011;40884;53.562;9.940;2022-12-05T02:50:48;29.90;;;18.98;;
54983;SDS011;40884;53.562;9.940;2022-12-05T02:51:52;25.40;;;19.05;;
54983;SDS011;40884;53.562;9.940;2022-12-05T02:52:54;25.50;;;18.33;;
54983;SDS011;40884;53.562;9.940;2022-12-05T02:53:56;26.85;;;19.08;;
54983;SDS011;40884;53.562;9.940;2022-12-05T02:54:58;25.33;;;18.83;;
54983;SDS011;40884;53.562;9.940;2022-12-05T02:55:58;26.83;;;18.93;;
54983;SDS011;40884;53.562;9.940;2022-12-05T02:56:59;23.90;;;18.47;;
54983;SDS011;40884;53.562;9.940;2022-12-05T02:58:00;27.83;;;18.37;;
54983;SDS011;40884;53.562;9.940;2022-12-05T02:59:02;26.27;;;18.35;;
54983;SDS011;40884;53.562;9.940;2022-12-05T03:00:03;26.53;;;18.77;;
54983;SDS011;40884;53.562;9.940;2022-12-05T03:01:03;27.47;;;19.43;;
54983;SDS011;40884;53.562;9.940;2022-12-05T03:02:06;26.55;;;19.98;;
54983;SDS011;40884;53.562;9.940;2022-12-05T03:03:11;27.40;;;19.92;;
54983;SDS011;40884;53.562;9.940;2022-12-05T03:04:12;26.98;;;19.42;;
54983;SDS011;40884;53.562;9.940;2022-12-05T03:06:14;29.63;;;19.77;;
54983;SDS011;40884;53.562;9.940;2022-12-05T03:07:16;25.35;;;18.58;;
54983;SDS011;40884;53.562;9.940;2022-12-05T03:08:21;26.92;;;19.17;;
54983;SDS011;40884;53.562;9.940;2022-12-05T03:09:23;27.88;;;19.13;;
54983;SDS011;40884;53.562;9.940;2022-12-05T03:10:25;29.63;;;18.40;;
54983;SDS011;40884;53.562;9.940;2022-12-05T03:11:27;26.63;;;18.90;;
54983;SDS011;40884;53.562;9.940;2022-12-05T03:12:30;26.63;;;18.95;;
54983;SDS011;40884;53.562;9.940;2022-12-05T03:13:37;28.08;;;19.77;;
54983;SDS011;40884;53.562;9.940;2022-12-05T03:14:43;27.83;;;19.98;;
54983;SDS011;40884;53.562;9.940;2022-12-05T03:15:46;28.75;;;19.25;;
54983;SDS011;40884;53.562;9.940;2022-12-05T03:16:51;28.08;;;20.40;;
54983;SDS011;40884;53.562;9.940;2022-12-05T03:17:53;26.90;;;19.20;;
54983;SDS011;40884;53.562;9.940;2022-12-05T03:18:55;28.88;;;19.60;;
54983;SDS011;40884;53.562;9.940;2022-12-05T03:21:16;27.60;;;18.95;;
54983;SDS011;40884;53.562;9.940;2022-12-05T03:22:25;29.00;;;19.80;;
54983;SDS011;40884;53.562;9.940;2022-12-05T03:23:30;27.25;;;19.23;;
54983;SDS011;40884;53.562;9.940;2022-12-05T03:24:33;29.00;;;19.30;;
54983;SDS011;40884;53.562;9.940;2022-12-05T03:25:39;28.92;;;20.02;;
54983;SDS011;40884;53.562;9.940;2022-12-05T03:26:54;26.88;;;18.13;;
54983;SDS011;40884;53.562;9.940;2022-12-05T03:28:00;27.98;;;19.42;;
54983;SDS011;40884;53.562;9.940;2022-12-05T03:29:17;27.55;;;19.30;;
54983;SDS011;40884;53.562;9.940;2022-12-05T03:30:18;27.77;;;17.98;;
54983;SDS011;40884;53.562;9.940;2022-12-05T03:31:21;25.75;;;17.83;;
54983;SDS011;40884;53.562;9.940;2022-12-05T03:32:25;27.10;;;18.65;;
54983;SDS011;40884;53.562;9.940;2022-12-05T03:33:30;30.60;;;19.48;;
54983;SDS011;40884;53.562;9.940;2022-12-05T03:35:50;30.65;;;19.83;;
54983;SDS011;40884;53.562;9.940;2022-12-05T03:36:55;26.98;;;19.70;;
54983;SDS011;40884;53.562;9.940;2022-12-05T03:38:00;27.37;;;19.13;;
54983;SDS011;40884;53.562;9.940;2022-12-05T03:39:05;27.90;;;19.05;;
54983;SDS011;40884;53.562;9.940;2022-12-05T03:42:30;27.47;;;19.97;;
54983;SDS011;40884;53.562;9.940;2022-12-05T03:43:36;29.10;;;20.25;;
54983;SDS011;40884;53.562;9.940;2022-12-05T03:44:47;28.45;;;19.60;;
54983;SDS011;40884;53.562;9.940;2022-12-05T03:45:53;29.17;;;19.08;;
54983;SDS011;40884;53.562;9.940;2022-12-05T03:46:56;29.77;;;19.25;;
54983;SDS011;40884;53.562;9.940;2022-12-05T03:48:09;28.77;;;20.33;;
54983;SDS011;40884;53.562;9.940;2022-12-05T03:49:24;30.45;;;20.48;;
54983;SDS011;40884;53.562;9.940;2022-12-05T03:50:27;28.60;;;19.67;;
54983;SDS011;40884;53.562;9.940;2022-12-05T03:51:32;29.70;;;19.88;;
54983;SDS011;40884;53.562;9.940;2022-12-05T03:52:35;27.95;;;19.88;;
54983;SDS011;40884;53.562;9.940;2022-12-05T03:53:50;31.13;;;21.08;;
54983;SDS011;40884;53.562;9.940;2022-12-05T03:54:52;29.58;;;20.20;;
54983;SDS011;40884;53.562;9.940;2022-12-05T03:55:58;26.80;;;19.80;;
54983;SDS011;40884;53.562;9.940;2022-12-05T03:57:18;27.35;;;18.58;;
54983;SDS011;40884;53.562;9.940;2022-12-05T03:58:25;28.40;;;20.23;;
54983;SDS011;40884;53.562;9.940;2022-12-05T03:59:36;28.83;;;19.42;;
54983;SDS011;40884;53.562;9.940;2022-12-05T04:00:39;29.90;;;20.60;;
54983;SDS011;40884;53.562;9.940;2022-12-05T04:01:39;28.20;;;19.73;;
54983;SDS011;40884;53.562;9.940;2022-12-05T04:03:45;29.50;;;19.55;;
54983;SDS011;40884;53.562;9.940;2022-12-05T04:04:48;30.65;;;21.10;;
54983;SDS011;40884;53.562;9.940;2022-12-05T04:05:52;30.42;;;22.10;;
54983;SDS011;40884;53.562;9.940;2022-12-05T04:06:54;30.05;;;20.65;;
54983;SDS011;40884;53.562;9.940;2022-12-05T04:07:57;30.38;;;21.75;;
54983;SDS011;40884;53.562;9.940;2022-12-05T04:09:00;31.40;;;21.45;;
54983;SDS011;40884;53.562;9.940;2022-12-05T04:10:02;29.58;;;20.17;;
54983;SDS011;40884;53.562;9.940;2022-12-05T04:11:06;32.20;;;21.38;;
54983;SDS011;40884;53.562;9.940;2022-12-05T04:12:07;28.20;;;20.77;;
54983;SDS011;40884;53.562;9.940;2022-12-05T04:13:09;29.88;;;20.95;;
54983;SDS011;40884;53.562;9.940;2022-12-05T04:14:21;28.97;;;21.33;;
54983;SDS011;40884;53.562;9.940;2022-12-05T04:15:25;31.00;;;20.88;;
54983;SDS011;40884;53.562;9.940;2022-12-05T04:16:29;30.35;;;20.75;;
54983;SDS011;40884;53.562;9.940;2022-12-05T04:17:41;30.15;;;19.98;;
54983;SDS011;40884;53.562;9.940;2022-12-05T04:18:50;30.27;;;21.00;;
54983;SDS011;40884;53.562;9.940;2022-12-05T04:19:52;28.65;;;19.98;;
54983;SDS011;40884;53.562;9.940;2022-12-05T04:20:54;30.55;;;21.58;;
54983;SDS011;40884;53.562;9.940;2022-12-05T04:21:56;32.65;;;22.23;;
54983;SDS011;40884;53.562;9.940;2022-12-05T04:22:56;33.40;;;21.90;;
54983;SDS011;40884;53.562;9.940;2022-12-05T04:23:57;31.77;;;22.20;;
54983;SDS011;40884;53.562;9.940;2022-12-05T04:24:58;34.03;;;22.37;;
54983;SDS011;40884;53.562;9.940;2022-12-05T04:26:01;31.77;;;21.52;;
54983;SDS011;40884;53.562;9.940;2022-12-05T04:27:05;31.42;;;21.40;;
54983;SDS011;40884;53.562;9.940;2022-12-05T04:28:10;29.88;;;20.40;;
54983;SDS011;40884;53.562;9.940;2022-12-05T04:29:18;32.17;;;20.55;;
54983;SDS011;40884;53.562;9.940;2022-12-05T04:30:22;31.88;;;22.05;;
54983;SDS011;40884;53.562;9.940;2022-12-05T04:31:24;32.88;;;22.38;;
54983;SDS011;40884;53.562;9.940;2022-12-05T04:32:25;31.83;;;22.13;;
54983;SDS011;40884;53.562;9.940;2022-12-05T04:33:28;33.30;;;22.50;;
54983;SDS011;40884;53.562;9.940;2022-12-05T04:34:31;31.45;;;21.85;;
54983;SDS011;40884;53.562;9.940;2022-12-05T04:35:37;32.80;;;22.20;;
54983;SDS011;40884;53.562;9.940;2022-12-05T04:36:42;30.27;;;21.33;;
54983;SDS011;40884;53.562;9.940;2022-12-05T04:37:44;33.45;;;21.92;;
54983;SDS011;40884;53.562;9.940;2022-12-05T04:39:01;33.20;;;22.05;;
54983;SDS011;40884;53.562;9.940;2022-12-05T04:40:03;33.58;;;22.23;;
54983;SDS011;40884;53.562;9.940;2022-12-05T04:41:07;32.55;;;22.25;;
54983;SDS011;40884;53.562;9.940;2022-12-05T04:42:11;33.35;;;21.77;;
54983;SDS011;40884;53.562;9.940;2022-12-05T04:43:13;32.38;;;21.90;;
54983;SDS011;40884;53.562;9.940;2022-12-05T04:44:15;33.78;;;21.90;;
54983;SDS011;40884;53.562;9.940;2022-12-05T04:45:16;31.52;;;21.65;;
54983;SDS011;40884;53.562;9.940;2022-12-05T04:46:18;33.80;;;23.40;;
54983;SDS011;40884;53.562;9.940;2022-12-05T04:47:21;35.53;;;23.15;;
54983;SDS011;40884;53.562;9.940;2022-12-05T04:48:24;34.55;;;22.45;;
54983;SDS011;40884;53.562;9.940;2022-12-05T04:49:25;31.27;;;21.95;;
54983;SDS011;40884;53.562;9.940;2022-12-05T04:50:27;34.22;;;22.63;;
54983;SDS011;40884;53.562;9.940;2022-12-05T04:51:29;32.75;;;22.00;;
54983;SDS011;40884;53.562;9.940;2022-12-05T04:52:30;32.92;;;21.65;;
54983;SDS011;40884;53.562;9.940;2022-12-05T04:53:32;34.72;;;22.40;;
54983;SDS011;40884;53.562;9.940;2022-12-05T04:54:49;34.57;;;21.77;;
54983;SDS011;40884;53.562;9.940;2022-12-05T04:55:51;36.30;;;21.88;;
54983;SDS011;40884;53.562;9.940;2022-12-05T04:56:54;33.58;;;21.60;;
54983;SDS011;40884;53.562;9.940;2022-12-05T04:58:20;34.13;;;22.48;;
54983;SDS011;40884;53.562;9.940;2022-12-05T04:59:18;36.28;;;22.70;;
54983;SDS011;40884;53.562;9.940;2022-12-05T05:00:18;32.03;;;22.37;;
54983;SDS011;40884;53.562;9.940;2022-12-05T05:01:21;36.50;;;22.67;;
54983;SDS011;40884;53.562;9.940;2022-12-05T05:02:24;31.42;;;20.90;;
54983;SDS011;40884;53.562;9.940;2022-12-05T05:03:33;31.95;;;22.00;;
54983;SDS011;40884;53.562;9.940;2022-12-05T05:04:39;36.35;;;22.60;;
54983;SDS011;40884;53.562;9.940;2022-12-05T05:05:42;35.83;;;22.52;;
54983;SDS011;40884;53.562;9.940;2022-12-05T05:06:43;33.55;;;22.20;;
54983;SDS011;40884;53.562;9.940;2022-12-05T05:07:44;35.73;;;21.93;;
54983;SDS011;40884;53.562;9.940;2022-12-05T05:08:52;34.90;;;21.55;;
54983;SDS011;40884;53.562;9.940;2022-12-05T05:09:52;30.88;;;20.48;;
54983;SDS011;40884;53.562;9.940;2022-12-05T05:12:11;32.42;;;21.70;;
54983;SDS011;40884;53.562;9.940;2022-12-05T05:13:11;35.27;;;22.00;;
54983;SDS011;40884;53.562;9.940;2022-12-05T05:14:11;42.47;;;25.40;;
54983;SDS011;40884;53.562;9.940;2022-12-05T05:15:11;42.80;;;27.13;;
54983;SDS011;40884;53.562;9.940;2022-12-05T05:16:16;36.30;;;25.03;;
54983;SDS011;40884;53.562;9.940;2022-12-05T05:17:16;40.50;;;24.88;;
54983;SDS011;40884;53.562;9.940;2022-12-05T05:18:16;33.00;;;22.00;;
54983;SDS011;40884;53.562;9.940;2022-12-05T05:19:16;34.33;;;21.63;;
54983;SDS011;40884;53.562;9.940;2022-12-05T05:20:16;34.60;;;21.47;;
54983;SDS011;40884;53.562;9.940;2022-12-05T05:21:23;36.67;;;22.57;;
54983;SDS011;40884;53.562;9.940;2022-12-05T05:22:24;32.65;;;20.83;;
54983;SDS011;40884;53.562;9.940;2022-12-05T05:23:24;30.77;;;20.90;;
54983;SDS011;40884;53.562;9.940;2022-12-05T05:24:24;34.60;;;21.73;;
54983;SDS011;40884;53.562;9.940;2022-12-05T05:25:25;33.87;;;21.70;;
54983;SDS011;40884;53.562;9.940;2022-12-05T05:26:25;33.37;;;20.63;;
54983;SDS011;40884;53.562;9.940;2022-12-05T05:27:26;34.30;;;21.50;;
54983;SDS011;40884;53.562;9.940;2022-12-05T05:28:26;34.27;;;21.60;;
54983;SDS011;40884;53.562;9.940;2022-12-05T05:29:26;30.70;;;19.80;;
54983;SDS011;40884;53.562;9.940;2022-12-05T05:30:26;35.57;;;20.77;;
54983;SDS011;40884;53.562;9.940;2022-12-05T05:31:26;35.03;;;20.80;;
54983;SDS011;40884;53.562;9.940;2022-12-05T05:32:26;34.23;;;21.67;;
54983;SDS011;40884;53.562;9.940;2022-12-05T05:33:27;33.57;;;21.93;;
54983;SDS011;40884;53.562;9.940;2022-12-05T05:34:27;37.53;;;22.30;;
54983;SDS011;40884;53.562;9.940;2022-12-05T05:35:27;33.57;;;21.37;;
54983;SDS011;40884;53.562;9.940;2022-12-05T05:36:27;33.93;;;22.17;;
54983;SDS011;40884;53.562;9.940;2022-12-05T05:37:27;34.80;;;21.00;;
54983;SDS011;40884;53.562;9.940;2022-12-05T05:38:27;32.37;;;21.97;;
54983;SDS011;40884;53.562;9.940;2022-12-05T05:39:27;35.60;;;21.43;;
54983;SDS011;40884;53.562;9.940;2022-12-05T05:40:27;36.53;;;22.40;;
54983;SDS011;40884;53.562;9.940;2022-12-05T05:41:29;36.87;;;22.90;;
54983;SDS011;40884;53.562;9.940;2022-12-05T05:42:29;31.73;;;21.33;;
54983;SDS011;40884;53.562;9.940;2022-12-05T05:43:29;37.33;;;23.80;;
54983;SDS011;40884;53.562;9.940;2022-12-05T05:44:29;34.70;;;22.23;;
54983;SDS011;40884;53.562;9.940;2022-12-05T05:45:29;36.03;;;22.73;;
54983;SDS011;40884;53.562;9.940;2022-12-05T05:46:31;33.00;;;21.23;;
54983;SDS011;40884;53.562;9.940;2022-12-05T05:47:31;37.72;;;23.02;;
54983;SDS011;40884;53.562;9.940;2022-12-05T05:48:31;38.00;;;22.70;;
54983;SDS011;40884;53.562;9.940;2022-12-05T05:49:32;40.47;;;23.30;;
54983;SDS011;40884;53.562;9.940;2022-12-05T05:50:32;40.00;;;23.60;;
54983;SDS011;40884;53.562;9.940;2022-12-05T05:51:32;32.50;;;20.43;;
54983;SDS011;40884;53.562;9.940;2022-12-05T05:52:33;37.60;;;21.77;;
54983;SDS011;40884;53.562;9.940;2022-12-05T05:53:33;37.90;;;22.73;;
54983;SDS011;40884;53.562;9.940;2022-12-05T05:54:33;42.97;;;23.93;;
54983;SDS011;40884;53.562;9.940;2022-12-05T05:55:33;38.30;;;23.20;;
54983;SDS011;40884;53.562;9.940;2022-12-05T05:56:33;39.23;;;24.23;;
54983;SDS011;40884;53.562;9.940;2022-12-05T05:57:34;39.37;;;24.10;;
54983;SDS011;40884;53.562;9.940;2022-12-05T05:58:34;40.60;;;24.33;;
54983;SDS011;40884;53.562;9.940;2022-12-05T05:59:34;40.73;;;23.83;;
54983;SDS011;40884;53.562;9.940;2022-12-05T06:00:34;38.60;;;22.97;;
54983;SDS011;40884;53.562;9.940;2022-12-05T06:01:34;44.27;;;24.50;;
54983;SDS011;40884;53.562;9.940;2022-12-05T06:02:34;38.77;;;22.43;;
54983;SDS011;40884;53.562;9.940;2022-12-05T06:03:35;43.80;;;23.33;;
54983;SDS011;40884;53.562;9.940;2022-12-05T06:04:35;44.30;;;24.67;;
54983;SDS011;40884;53.562;9.940;2022-12-05T06:05:35;42.77;;;23.37;;
54983;SDS011;40884;53.562;9.940;2022-12-05T06:06:36;43.07;;;23.60;;
54983;SDS011;40884;53.562;9.940;2022-12-05T06:07:36;46.23;;;25.43;;
54983;SDS011;40884;53.562;9.940;2022-12-05T06:08:37;45.23;;;25.87;;
54983;SDS011;40884;53.562;9.940;2022-12-05T06:09:37;49.10;;;25.88;;
54983;SDS011;40884;53.562;9.940;2022-12-05T06:10:37;46.80;;;24.17;;
54983;SDS011;40884;53.562;9.940;2022-12-05T06:11:38;50.00;;;25.50;;
54983;SDS011;40884;53.562;9.940;2022-12-05T06:12:38;51.93;;;26.70;;
54983;SDS011;40884;53.562;9.940;2022-12-05T06:13:38;49.63;;;24.53;;
54983;SDS011;40884;53.562;9.940;2022-12-05T06:14:38;50.27;;;25.67;;
54983;SDS011;40884;53.562;9.940;2022-12-05T06:15:38;46.67;;;25.03;;
54983;SDS011;40884;53.562;9.940;2022-12-05T06:16:38;47.83;;;25.00;;
54983;SDS011;40884;53.562;9.940;2022-12-05T06:17:38;47.33;;;25.53;;
54983;SDS011;40884;53.562;9.940;2022-12-05T06:18:38;45.93;;;23.30;;
54983;SDS011;40884;53.562;9.940;2022-12-05T06:19:39;49.23;;;26.00;;
54983;SDS011;40884;53.562;9.940;2022-12-05T06:20:39;46.73;;;23.53;;
54983;SDS011;40884;53.562;9.940;2022-12-05T06:21:39;49.27;;;24.67;;
54983;SDS011;40884;53.562;9.940;2022-12-05T06:22:39;50.53;;;25.30;;
54983;SDS011;40884;53.562;9.940;2022-12-05T06:23:39;50.77;;;25.73;;
54983;SDS011;40884;53.562;9.940;2022-12-05T06:24:40;50.50;;;25.90;;
54983;SDS011;40884;53.562;9.940;2022-12-05T06:25:43;48.67;;;26.80;;
54983;SDS011;40884;53.562;9.940;2022-12-05T06:26:45;49.10;;;26.13;;